METAR Data
IDs: Format: Raw Decoded Include TAF

Data at: 1702 UTC 18 Feb 2019

METAR for:KCBF (Council Bluffs Muni, IA, US)
Text:KCBF 181655Z AUTO 35008KT 10SM CLR M10/M11 A3046 RMK AO2
Temperature:-10.0°C ( 14°F)
Dewpoint:-11.0°C ( 12°F) [RH = 92%]
Pressure (altimeter):30.46 inches Hg (1031.6 mb)
Winds:from the N (350 degrees) at 9 MPH (8 knots; 4.1 m/s)
Visibility:10 or more sm (16+ km)
Ceiling:at least 12,000 feet AGL
Clouds:sky clear below 12,000 feet AGL
QC Flag:automated observation with no human augmentation